Main page
METAR-TAF:

METAR-TAF

Airports :

Taylor County Airport

Medford, Wisconsin, United States

latitude: 45-06-04N, longitude: 090-18-12W, elevation: 1469 ft

Current weather observation

The report was made 13 minutes ago, at 14:55 UTC
Wind 3 mph from the North
Temperature 77°F
Humidity 61%
Pressure 30.00 in. Hg
Visibility: 10 miles
Clear sky

METAR: KMDZ 071455Z AUTO 36003KT 10SM CLR 25/17 A3000 RMK AO2 T02450171

Time: 10:08 (15:08 UTC)


TAF: missing

Weather observations and forecasts of more than 4000 airports (METAR and TAF reports).

The available stations are represented by yellow and red dots on the map.

Hover mouse over dot to see the name of the station.

Then click to see weather observations and forecasts.

To change the map : click on the green buttons with a black cross to zoom in, on the green button with a dash to zoom out, or on the green arrows for adjacent maps.


METAR-TAF: